sensor_id;sensor_type;location;lat;lon;timestamp;P1;durP1;ratioP1;P2;durP2;ratioP2
20449;SDS011;10384;51.940;8.432;2023-02-16T00:00:28;18.67;;;8.03;;
20449;SDS011;10384;51.940;8.432;2023-02-16T00:02:55;21.00;;;8.57;;
20449;SDS011;10384;51.940;8.432;2023-02-16T00:05:22;19.30;;;7.93;;
20449;SDS011;10384;51.940;8.432;2023-02-16T00:07:48;20.00;;;8.03;;
20449;SDS011;10384;51.940;8.432;2023-02-16T00:10:15;19.30;;;8.23;;
20449;SDS011;10384;51.940;8.432;2023-02-16T00:12:40;17.67;;;7.87;;
20449;SDS011;10384;51.940;8.432;2023-02-16T00:15:25;23.43;;;8.57;;
20449;SDS011;10384;51.940;8.432;2023-02-16T00:17:52;22.50;;;8.93;;
20449;SDS011;10384;51.940;8.432;2023-02-16T00:20:19;20.90;;;8.30;;
20449;SDS011;10384;51.940;8.432;2023-02-16T00:22:45;19.57;;;7.70;;
20449;SDS011;10384;51.940;8.432;2023-02-16T00:25:11;18.60;;;7.67;;
20449;SDS011;10384;51.940;8.432;2023-02-16T00:27:37;22.37;;;8.97;;
20449;SDS011;10384;51.940;8.432;2023-02-16T00:30:24;23.60;;;8.70;;
20449;SDS011;10384;51.940;8.432;2023-02-16T00:32:49;20.70;;;8.10;;
20449;SDS011;10384;51.940;8.432;2023-02-16T00:35:16;24.53;;;8.00;;
20449;SDS011;10384;51.940;8.432;2023-02-16T00:37:42;21.80;;;8.23;;
20449;SDS011;10384;51.940;8.432;2023-02-16T00:40:08;25.53;;;9.90;;
20449;SDS011;10384;51.940;8.432;2023-02-16T00:42:35;19.90;;;7.87;;
20449;SDS011;10384;51.940;8.432;2023-02-16T00:45:01;25.37;;;10.03;;
20449;SDS011;10384;51.940;8.432;2023-02-16T00:47:37;21.10;;;8.00;;
20449;SDS011;10384;51.940;8.432;2023-02-16T00:50:15;18.37;;;8.03;;
20449;SDS011;10384;51.940;8.432;2023-02-16T00:52:41;21.33;;;9.23;;
20449;SDS011;10384;51.940;8.432;2023-02-16T00:55:23;23.37;;;8.93;;
20449;SDS011;10384;51.940;8.432;2023-02-16T01:00:29;18.17;;;7.57;;
20449;SDS011;10384;51.940;8.432;2023-02-16T01:03:00;21.47;;;8.80;;
20449;SDS011;10384;51.940;8.432;2023-02-16T01:05:27;24.03;;;9.07;;
20449;SDS011;10384;51.940;8.432;2023-02-16T01:07:53;17.60;;;8.20;;
20449;SDS011;10384;51.940;8.432;2023-02-16T01:10:38;22.97;;;8.77;;
20449;SDS011;10384;51.940;8.432;2023-02-16T01:13:24;19.33;;;8.33;;
20449;SDS011;10384;51.940;8.432;2023-02-16T01:15:51;18.30;;;7.77;;
20449;SDS011;10384;51.940;8.432;2023-02-16T01:18:17;23.53;;;8.87;;
20449;SDS011;10384;51.940;8.432;2023-02-16T01:20:44;22.63;;;8.03;;
20449;SDS011;10384;51.940;8.432;2023-02-16T01:23:10;22.10;;;8.77;;
20449;SDS011;10384;51.940;8.432;2023-02-16T01:25:36;21.23;;;8.10;;
20449;SDS011;10384;51.940;8.432;2023-02-16T01:28:03;18.30;;;8.27;;
20449;SDS011;10384;51.940;8.432;2023-02-16T01:30:33;29.83;;;9.30;;
20449;SDS011;10384;51.940;8.432;2023-02-16T01:32:59;23.70;;;9.07;;
20449;SDS011;10384;51.940;8.432;2023-02-16T01:35:29;23.93;;;9.93;;
20449;SDS011;10384;51.940;8.432;2023-02-16T01:37:57;19.47;;;8.43;;
20449;SDS011;10384;51.940;8.432;2023-02-16T01:42:53;20.87;;;8.60;;
20449;SDS011;10384;51.940;8.432;2023-02-16T01:45:28;21.00;;;9.10;;
20449;SDS011;10384;51.940;8.432;2023-02-16T01:47:57;19.73;;;7.73;;
20449;SDS011;10384;51.940;8.432;2023-02-16T01:50:26;22.67;;;8.80;;
20449;SDS011;10384;51.940;8.432;2023-02-16T01:52:59;25.17;;;9.30;;
20449;SDS011;10384;51.940;8.432;2023-02-16T01:55:28;20.80;;;9.07;;
20449;SDS011;10384;51.940;8.432;2023-02-16T01:58:04;24.23;;;9.10;;
20449;SDS011;10384;51.940;8.432;2023-02-16T02:03:17;20.67;;;8.50;;
20449;SDS011;10384;51.940;8.432;2023-02-16T02:06:03;24.37;;;8.73;;
20449;SDS011;10384;51.940;8.432;2023-02-16T02:08:35;23.83;;;8.97;;
20449;SDS011;10384;51.940;8.432;2023-02-16T02:11:22;30.50;;;9.90;;
20449;SDS011;10384;51.940;8.432;2023-02-16T02:13:57;19.03;;;8.20;;
20449;SDS011;10384;51.940;8.432;2023-02-16T02:16:26;22.53;;;9.10;;
20449;SDS011;10384;51.940;8.432;2023-02-16T02:18:52;25.27;;;8.70;;
20449;SDS011;10384;51.940;8.432;2023-02-16T02:29:39;20.07;;;7.87;;
20449;SDS011;10384;51.940;8.432;2023-02-16T02:32:15;19.10;;;8.20;;
20449;SDS011;10384;51.940;8.432;2023-02-16T02:34:48;24.47;;;9.63;;
20449;SDS011;10384;51.940;8.432;2023-02-16T02:37:28;24.73;;;8.40;;
20449;SDS011;10384;51.940;8.432;2023-02-16T02:40:04;22.63;;;9.60;;
20449;SDS011;10384;51.940;8.432;2023-02-16T02:42:40;22.83;;;8.93;;
20449;SDS011;10384;51.940;8.432;2023-02-16T02:45:13;18.13;;;8.00;;
20449;SDS011;10384;51.940;8.432;2023-02-16T02:47:43;23.90;;;8.10;;
20449;SDS011;10384;51.940;8.432;2023-02-16T02:52:54;18.17;;;8.73;;
20449;SDS011;10384;51.940;8.432;2023-02-16T02:55:23;22.83;;;9.27;;
20449;SDS011;10384;51.940;8.432;2023-02-16T02:58:08;23.03;;;9.10;;
20449;SDS011;10384;51.940;8.432;2023-02-16T03:00:53;25.67;;;9.07;;
20449;SDS011;10384;51.940;8.432;2023-02-16T03:03:23;26.93;;;9.43;;
20449;SDS011;10384;51.940;8.432;2023-02-16T03:05:59;21.63;;;9.03;;
20449;SDS011;10384;51.940;8.432;2023-02-16T03:08:28;21.27;;;9.70;;
20449;SDS011;10384;51.940;8.432;2023-02-16T03:11:07;22.43;;;8.10;;
20449;SDS011;10384;51.940;8.432;2023-02-16T03:13:54;23.80;;;8.67;;
20449;SDS011;10384;51.940;8.432;2023-02-16T03:16:25;26.07;;;8.33;;
20449;SDS011;10384;51.940;8.432;2023-02-16T03:18:52;21.43;;;8.40;;
20449;SDS011;10384;51.940;8.432;2023-02-16T03:21:38;21.27;;;7.43;;
20449;SDS011;10384;51.940;8.432;2023-02-16T03:24:25;24.80;;;8.50;;
20449;SDS011;10384;51.940;8.432;2023-02-16T03:27:11;28.27;;;9.63;;
20449;SDS011;10384;51.940;8.432;2023-02-16T03:29:56;24.83;;;10.33;;
20449;SDS011;10384;51.940;8.432;2023-02-16T03:32:23;22.67;;;9.23;;
20449;SDS011;10384;51.940;8.432;2023-02-16T03:34:49;23.63;;;8.93;;
20449;SDS011;10384;51.940;8.432;2023-02-16T03:37:15;26.13;;;10.03;;
20449;SDS011;10384;51.940;8.432;2023-02-16T03:39:41;26.93;;;9.60;;
20449;SDS011;10384;51.940;8.432;2023-02-16T03:42:26;25.73;;;9.77;;
20449;SDS011;10384;51.940;8.432;2023-02-16T03:44:52;23.53;;;8.93;;
20449;SDS011;10384;51.940;8.432;2023-02-16T03:47:18;24.23;;;9.60;;
20449;SDS011;10384;51.940;8.432;2023-02-16T03:49:44;26.10;;;10.47;;
20449;SDS011;10384;51.940;8.432;2023-02-16T03:52:10;23.53;;;9.50;;
20449;SDS011;10384;51.940;8.432;2023-02-16T03:54:36;22.90;;;8.97;;
20449;SDS011;10384;51.940;8.432;2023-02-16T03:57:02;26.73;;;9.03;;
20449;SDS011;10384;51.940;8.432;2023-02-16T03:59:28;27.17;;;10.33;;
20449;SDS011;10384;51.940;8.432;2023-02-16T04:01:54;25.83;;;10.70;;
20449;SDS011;10384;51.940;8.432;2023-02-16T04:04:20;26.20;;;10.17;;
20449;SDS011;10384;51.940;8.432;2023-02-16T04:06:46;23.23;;;9.73;;
20449;SDS011;10384;51.940;8.432;2023-02-16T04:09:11;32.57;;;11.87;;
20449;SDS011;10384;51.940;8.432;2023-02-16T04:11:37;30.50;;;10.10;;
20449;SDS011;10384;51.940;8.432;2023-02-16T04:14:22;34.87;;;11.63;;
20449;SDS011;10384;51.940;8.432;2023-02-16T04:16:48;28.27;;;9.73;;
20449;SDS011;10384;51.940;8.432;2023-02-16T04:19:14;26.70;;;11.33;;
20449;SDS011;10384;51.940;8.432;2023-02-16T04:21:40;29.70;;;10.73;;
20449;SDS011;10384;51.940;8.432;2023-02-16T04:24:07;33.43;;;11.13;;
20449;SDS011;10384;51.940;8.432;2023-02-16T04:26:33;30.27;;;10.33;;
20449;SDS011;10384;51.940;8.432;2023-02-16T04:28:59;44.33;;;12.30;;
20449;SDS011;10384;51.940;8.432;2023-02-16T04:31:25;24.67;;;10.57;;
20449;SDS011;10384;51.940;8.432;2023-02-16T04:33:51;31.80;;;12.03;;
20449;SDS011;10384;51.940;8.432;2023-02-16T04:36:17;32.83;;;11.47;;
20449;SDS011;10384;51.940;8.432;2023-02-16T04:38:43;32.83;;;11.87;;
20449;SDS011;10384;51.940;8.432;2023-02-16T04:41:09;32.33;;;12.73;;
20449;SDS011;10384;51.940;8.432;2023-02-16T04:43:34;30.43;;;12.53;;
20449;SDS011;10384;51.940;8.432;2023-02-16T04:46:00;34.20;;;12.23;;
20449;SDS011;10384;51.940;8.432;2023-02-16T04:48:26;34.83;;;13.10;;
20449;SDS011;10384;51.940;8.432;2023-02-16T04:50:52;36.07;;;12.27;;
20449;SDS011;10384;51.940;8.432;2023-02-16T04:53:18;36.33;;;12.97;;
20449;SDS011;10384;51.940;8.432;2023-02-16T04:55:45;31.03;;;11.67;;
20449;SDS011;10384;51.940;8.432;2023-02-16T04:58:12;32.30;;;12.37;;
20449;SDS011;10384;51.940;8.432;2023-02-16T05:00:38;31.47;;;11.87;;
20449;SDS011;10384;51.940;8.432;2023-02-16T05:03:03;33.43;;;13.73;;
20449;SDS011;10384;51.940;8.432;2023-02-16T05:05:29;37.90;;;13.03;;
20449;SDS011;10384;51.940;8.432;2023-02-16T05:07:55;37.33;;;13.37;;
20449;SDS011;10384;51.940;8.432;2023-02-16T05:10:21;34.77;;;12.70;;
20449;SDS011;10384;51.940;8.432;2023-02-16T05:12:47;33.73;;;12.00;;
20449;SDS011;10384;51.940;8.432;2023-02-16T05:15:32;26.90;;;11.63;;
20449;SDS011;10384;51.940;8.432;2023-02-16T05:17:58;33.47;;;12.93;;
20449;SDS011;10384;51.940;8.432;2023-02-16T05:20:24;33.80;;;12.07;;
20449;SDS011;10384;51.940;8.432;2023-02-16T05:23:10;30.47;;;11.17;;
20449;SDS011;10384;51.940;8.432;2023-02-16T05:25:36;36.73;;;12.77;;
20449;SDS011;10384;51.940;8.432;2023-02-16T05:28:02;37.87;;;13.27;;
20449;SDS011;10384;51.940;8.432;2023-02-16T05:30:28;36.53;;;12.43;;
20449;SDS011;10384;51.940;8.432;2023-02-16T05:32:54;37.67;;;13.07;;
20449;SDS011;10384;51.940;8.432;2023-02-16T05:35:20;35.90;;;11.53;;
20449;SDS011;10384;51.940;8.432;2023-02-16T05:37:46;36.40;;;13.67;;
20449;SDS011;10384;51.940;8.432;2023-02-16T05:40:12;38.73;;;14.40;;
20449;SDS011;10384;51.940;8.432;2023-02-16T05:42:38;37.30;;;13.90;;
20449;SDS011;10384;51.940;8.432;2023-02-16T05:45:04;35.10;;;13.23;;
20449;SDS011;10384;51.940;8.432;2023-02-16T05:47:30;35.73;;;12.90;;
20449;SDS011;10384;51.940;8.432;2023-02-16T05:49:56;36.30;;;13.40;;
20449;SDS011;10384;51.940;8.432;2023-02-16T05:52:22;33.77;;;13.07;;
20449;SDS011;10384;51.940;8.432;2023-02-16T05:54:48;34.37;;;12.80;;
20449;SDS011;10384;51.940;8.432;2023-02-16T05:57:13;32.43;;;12.00;;
20449;SDS011;10384;51.940;8.432;2023-02-16T05:59:39;30.67;;;12.17;;
20449;SDS011;10384;51.940;8.432;2023-02-16T06:02:05;33.43;;;11.97;;
20449;SDS011;10384;51.940;8.432;2023-02-16T06:04:33;28.17;;;11.00;;
20449;SDS011;10384;51.940;8.432;2023-02-16T06:06:59;39.60;;;13.27;;
20449;SDS011;10384;51.940;8.432;2023-02-16T06:09:25;33.90;;;12.17;;
20449;SDS011;10384;51.940;8.432;2023-02-16T06:11:51;37.10;;;13.17;;
20449;SDS011;10384;51.940;8.432;2023-02-16T06:14:18;35.73;;;12.57;;
20449;SDS011;10384;51.940;8.432;2023-02-16T06:16:45;35.13;;;13.20;;
20449;SDS011;10384;51.940;8.432;2023-02-16T06:19:12;32.80;;;12.03;;
20449;SDS011;10384;51.940;8.432;2023-02-16T06:21:38;36.00;;;13.30;;
20449;SDS011;10384;51.940;8.432;2023-02-16T06:24:05;37.30;;;13.20;;
20449;SDS011;10384;51.940;8.432;2023-02-16T06:26:31;34.47;;;13.77;;
20449;SDS011;10384;51.940;8.432;2023-02-16T06:28:57;40.57;;;14.57;;
20449;SDS011;10384;51.940;8.432;2023-02-16T06:31:24;42.50;;;13.70;;
20449;SDS011;10384;51.940;8.432;2023-02-16T06:33:50;38.60;;;12.90;;
20449;SDS011;10384;51.940;8.432;2023-02-16T06:36:16;42.53;;;14.60;;
20449;SDS011;10384;51.940;8.432;2023-02-16T06:38:42;37.20;;;14.37;;
20449;SDS011;10384;51.940;8.432;2023-02-16T06:41:09;31.43;;;12.57;;
20449;SDS011;10384;51.940;8.432;2023-02-16T06:43:35;32.90;;;12.83;;
20449;SDS011;10384;51.940;8.432;2023-02-16T06:46:01;38.07;;;13.93;;
20449;SDS011;10384;51.940;8.432;2023-02-16T06:48:27;40.03;;;13.30;;
20449;SDS011;10384;51.940;8.432;2023-02-16T06:50:53;42.07;;;14.10;;
20449;SDS011;10384;51.940;8.432;2023-02-16T06:53:19;42.17;;;13.27;;
20449;SDS011;10384;51.940;8.432;2023-02-16T06:55:45;39.00;;;14.10;;
20449;SDS011;10384;51.940;8.432;2023-02-16T06:58:13;39.30;;;14.13;;
20449;SDS011;10384;51.940;8.432;2023-02-16T07:00:38;37.03;;;13.53;;
20449;SDS011;10384;51.940;8.432;2023-02-16T07:03:04;40.70;;;13.63;;
20449;SDS011;10384;51.940;8.432;2023-02-16T07:05:30;36.13;;;12.73;;
20449;SDS011;10384;51.940;8.432;2023-02-16T07:07:56;39.93;;;13.50;;
20449;SDS011;10384;51.940;8.432;2023-02-16T07:10:22;43.33;;;14.83;;
20449;SDS011;10384;51.940;8.432;2023-02-16T07:12:48;42.10;;;14.40;;
20449;SDS011;10384;51.940;8.432;2023-02-16T07:15:14;38.33;;;14.73;;
20449;SDS011;10384;51.940;8.432;2023-02-16T07:17:40;34.70;;;12.53;;
20449;SDS011;10384;51.940;8.432;2023-02-16T07:20:06;33.40;;;13.23;;
20449;SDS011;10384;51.940;8.432;2023-02-16T07:22:32;33.57;;;12.63;;
20449;SDS011;10384;51.940;8.432;2023-02-16T07:24:58;38.87;;;14.47;;
20449;SDS011;10384;51.940;8.432;2023-02-16T07:27:24;34.77;;;13.40;;
20449;SDS011;10384;51.940;8.432;2023-02-16T07:29:51;42.20;;;14.00;;
20449;SDS011;10384;51.940;8.432;2023-02-16T07:32:17;42.33;;;13.57;;
20449;SDS011;10384;51.940;8.432;2023-02-16T07:34:43;41.57;;;14.73;;
20449;SDS011;10384;51.940;8.432;2023-02-16T07:37:09;40.43;;;13.77;;
20449;SDS011;10384;51.940;8.432;2023-02-16T07:39:35;33.10;;;12.57;;
20449;SDS011;10384;51.940;8.432;2023-02-16T07:42:01;41.43;;;14.40;;
20449;SDS011;10384;51.940;8.432;2023-02-16T07:44:28;41.83;;;14.63;;
20449;SDS011;10384;51.940;8.432;2023-02-16T07:46:54;43.23;;;16.70;;
20449;SDS011;10384;51.940;8.432;2023-02-16T07:49:20;42.77;;;16.97;;
20449;SDS011;10384;51.940;8.432;2023-02-16T07:51:46;38.90;;;15.53;;
20449;SDS011;10384;51.940;8.432;2023-02-16T07:54:12;40.23;;;14.10;;
20449;SDS011;10384;51.940;8.432;2023-02-16T07:56:38;40.10;;;13.13;;
20449;SDS011;10384;51.940;8.432;2023-02-16T07:59:04;45.97;;;15.97;;
20449;SDS011;10384;51.940;8.432;2023-02-16T08:01:30;41.93;;;16.10;;
20449;SDS011;10384;51.940;8.432;2023-02-16T08:03:56;38.97;;;15.20;;
20449;SDS011;10384;51.940;8.432;2023-02-16T08:06:22;35.83;;;12.77;;
20449;SDS011;10384;51.940;8.432;2023-02-16T08:08:48;35.80;;;13.10;;
20449;SDS011;10384;51.940;8.432;2023-02-16T08:11:24;37.73;;;14.33;;
20449;SDS011;10384;51.940;8.432;2023-02-16T08:13:50;35.17;;;12.47;;
20449;SDS011;10384;51.940;8.432;2023-02-16T08:16:26;37.40;;;13.63;;
20449;SDS011;10384;51.940;8.432;2023-02-16T08:18:53;39.27;;;13.83;;
20449;SDS011;10384;51.940;8.432;2023-02-16T08:21:22;43.43;;;14.10;;
20449;SDS011;10384;51.940;8.432;2023-02-16T08:23:56;45.23;;;14.73;;
20449;SDS011;10384;51.940;8.432;2023-02-16T08:26:23;33.03;;;13.70;;
20449;SDS011;10384;51.940;8.432;2023-02-16T08:28:49;33.47;;;12.40;;
20449;SDS011;10384;51.940;8.432;2023-02-16T08:31:17;33.60;;;12.37;;
20449;SDS011;10384;51.940;8.432;2023-02-16T08:33:44;32.57;;;12.73;;
20449;SDS011;10384;51.940;8.432;2023-02-16T08:36:44;39.47;;;13.60;;
20449;SDS011;10384;51.940;8.432;2023-02-16T08:39:09;39.23;;;13.70;;
20449;SDS011;10384;51.940;8.432;2023-02-16T08:41:36;28.53;;;12.23;;
20449;SDS011;10384;51.940;8.432;2023-02-16T08:44:03;36.57;;;12.67;;
20449;SDS011;10384;51.940;8.432;2023-02-16T08:46:30;36.63;;;13.03;;
20449;SDS011;10384;51.940;8.432;2023-02-16T08:48:56;36.73;;;12.63;;
20449;SDS011;10384;51.940;8.432;2023-02-16T08:51:24;37.27;;;13.60;;
20449;SDS011;10384;51.940;8.432;2023-02-16T08:53:50;32.57;;;12.10;;
20449;SDS011;10384;51.940;8.432;2023-02-16T08:56:16;33.13;;;12.73;;
20449;SDS011;10384;51.940;8.432;2023-02-16T08:58:43;34.57;;;13.47;;
20449;SDS011;10384;51.940;8.432;2023-02-16T09:01:10;34.40;;;12.17;;
20449;SDS011;10384;51.940;8.432;2023-02-16T09:03:37;35.23;;;12.80;;
20449;SDS011;10384;51.940;8.432;2023-02-16T09:06:05;31.87;;;12.10;;
20449;SDS011;10384;51.940;8.432;2023-02-16T09:08:31;33.67;;;12.43;;
20449;SDS011;10384;51.940;8.432;2023-02-16T09:11:15;36.93;;;13.23;;
20449;SDS011;10384;51.940;8.432;2023-02-16T09:13:41;37.37;;;12.73;;
20449;SDS011;10384;51.940;8.432;2023-02-16T09:16:10;31.77;;;11.97;;
20449;SDS011;10384;51.940;8.432;2023-02-16T09:18:36;35.00;;;13.20;;
20449;SDS011;10384;51.940;8.432;2023-02-16T09:21:03;35.90;;;13.17;;
20449;SDS011;10384;51.940;8.432;2023-02-16T09:23:31;34.67;;;12.70;;
20449;SDS011;10384;51.940;8.432;2023-02-16T09:25:58;30.40;;;11.97;;
20449;SDS011;10384;51.940;8.432;2023-02-16T09:28:26;34.90;;;12.50;;
20449;SDS011;10384;51.940;8.432;2023-02-16T09:30:52;35.70;;;12.37;;
20449;SDS011;10384;51.940;8.432;2023-02-16T09:33:18;37.27;;;13.90;;
20449;SDS011;10384;51.940;8.432;2023-02-16T09:35:45;38.07;;;14.20;;
20449;SDS011;10384;51.940;8.432;2023-02-16T09:38:11;37.63;;;13.10;;
20449;SDS011;10384;51.940;8.432;2023-02-16T09:40:40;31.87;;;12.73;;
20449;SDS011;10384;51.940;8.432;2023-02-16T09:43:19;32.53;;;12.63;;
20449;SDS011;10384;51.940;8.432;2023-02-16T09:45:50;31.10;;;12.47;;
20449;SDS011;10384;51.940;8.432;2023-02-16T09:48:20;35.20;;;12.10;;
20449;SDS011;10384;51.940;8.432;2023-02-16T09:50:47;35.27;;;13.30;;
20449;SDS011;10384;51.940;8.432;2023-02-16T09:58:52;35.33;;;13.03;;
20449;SDS011;10384;51.940;8.432;2023-02-16T10:01:20;27.87;;;11.23;;
20449;SDS011;10384;51.940;8.432;2023-02-16T10:04:04;35.33;;;13.27;;
20449;SDS011;10384;51.940;8.432;2023-02-16T10:09:04;35.37;;;12.23;;
20449;SDS011;10384;51.940;8.432;2023-02-16T10:11:32;33.17;;;12.47;;
20449;SDS011;10384;51.940;8.432;2023-02-16T10:16:42;32.63;;;12.57;;
20449;SDS011;10384;51.940;8.432;2023-02-16T10:19:19;33.77;;;12.57;;
20449;SDS011;10384;51.940;8.432;2023-02-16T10:21:49;33.23;;;13.00;;
20449;SDS011;10384;51.940;8.432;2023-02-16T10:24:16;31.07;;;12.50;;
20449;SDS011;10384;51.940;8.432;2023-02-16T10:26:47;33.63;;;13.73;;
20449;SDS011;10384;51.940;8.432;2023-02-16T10:29:16;34.17;;;13.97;;
20449;SDS011;10384;51.940;8.432;2023-02-16T10:39:47;32.73;;;13.17;;
20449;SDS011;10384;51.940;8.432;2023-02-16T10:42:24;36.40;;;13.13;;
20449;SDS011;10384;51.940;8.432;2023-02-16T10:44:57;31.83;;;13.30;;
20449;SDS011;10384;51.940;8.432;2023-02-16T10:49:53;31.67;;;13.63;;
20449;SDS011;10384;51.940;8.432;2023-02-16T10:52:20;38.77;;;13.30;;
20449;SDS011;10384;51.940;8.432;2023-02-16T10:54:46;35.27;;;12.93;;
20449;SDS011;10384;51.940;8.432;2023-02-16T10:57:23;35.23;;;14.33;;
20449;SDS011;10384;51.940;8.432;2023-02-16T10:59:50;34.33;;;13.00;;
20449;SDS011;10384;51.940;8.432;2023-02-16T11:04:47;34.60;;;13.30;;
20449;SDS011;10384;51.940;8.432;2023-02-16T11:07:17;30.97;;;12.23;;
20449;SDS011;10384;51.940;8.432;2023-02-16T11:09:44;39.03;;;14.03;;
20449;SDS011;10384;51.940;8.432;2023-02-16T11:12:14;31.63;;;13.50;;
20449;SDS011;10384;51.940;8.432;2023-02-16T11:14:46;35.23;;;13.80;;
20449;SDS011;10384;51.940;8.432;2023-02-16T11:17:13;35.70;;;13.93;;
20449;SDS011;10384;51.940;8.432;2023-02-16T11:20:02;35.00;;;13.27;;
20449;SDS011;10384;51.940;8.432;2023-02-16T11:22:36;34.87;;;13.43;;
20449;SDS011;10384;51.940;8.432;2023-02-16T11:25:17;39.50;;;13.77;;
20449;SDS011;10384;51.940;8.432;2023-02-16T11:27:52;35.00;;;14.17;;
20449;SDS011;10384;51.940;8.432;2023-02-16T11:30:21;38.63;;;14.40;;
20449;SDS011;10384;51.940;8.432;2023-02-16T11:32:51;31.20;;;12.33;;
20449;SDS011;10384;51.940;8.432;2023-02-16T11:35:17;34.63;;;13.83;;
20449;SDS011;10384;51.940;8.432;2023-02-16T11:37:43;38.63;;;13.50;;
20449;SDS011;10384;51.940;8.432;2023-02-16T11:40:17;36.93;;;13.50;;
20449;SDS011;10384;51.940;8.432;2023-02-16T11:42:44;31.07;;;13.17;;
20449;SDS011;10384;51.940;8.432;2023-02-16T11:45:31;33.17;;;12.63;;
20449;SDS011;10384;51.940;8.432;2023-02-16T11:47:59;31.30;;;11.97;;
20449;SDS011;10384;51.940;8.432;2023-02-16T11:50:28;32.13;;;12.03;;
20449;SDS011;10384;51.940;8.432;2023-02-16T11:52:56;37.03;;;12.33;;
20449;SDS011;10384;51.940;8.432;2023-02-16T11:55:27;33.13;;;11.90;;
20449;SDS011;10384;51.940;8.432;2023-02-16T11:58:07;37.53;;;12.50;;
20449;SDS011;10384;51.940;8.432;2023-02-16T12:00:37;30.37;;;12.70;;
20449;SDS011;10384;51.940;8.432;2023-02-16T12:05:39;32.93;;;11.67;;
20449;SDS011;10384;51.940;8.432;2023-02-16T12:18:55;29.87;;;11.57;;
20449;SDS011;10384;51.940;8.432;2023-02-16T12:21:35;28.90;;;11.13;;
20449;SDS011;10384;51.940;8.432;2023-02-16T12:24:20;27.60;;;10.63;;
20449;SDS011;10384;51.940;8.432;2023-02-16T12:26:51;30.87;;;11.93;;
20449;SDS011;10384;51.940;8.432;2023-02-16T12:34:45;30.10;;;12.17;;
20449;SDS011;10384;51.940;8.432;2023-02-16T12:37:20;24.60;;;10.90;;
20449;SDS011;10384;51.940;8.432;2023-02-16T12:45:19;26.53;;;10.30;;
20449;SDS011;10384;51.940;8.432;2023-02-16T12:50:31;30.03;;;12.27;;
20449;SDS011;10384;51.940;8.432;2023-02-16T12:55:51;28.13;;;11.23;;
20449;SDS011;10384;51.940;8.432;2023-02-16T12:58:24;30.03;;;11.13;;
20449;SDS011;10384;51.940;8.432;2023-02-16T13:00:54;27.23;;;10.93;;
20449;SDS011;10384;51.940;8.432;2023-02-16T13:03:42;27.27;;;9.80;;
20449;SDS011;10384;51.940;8.432;2023-02-16T13:06:25;26.20;;;10.67;;
20449;SDS011;10384;51.940;8.432;2023-02-16T13:14:19;27.10;;;10.63;;
20449;SDS011;10384;51.940;8.432;2023-02-16T13:16:47;25.07;;;11.83;;
20449;SDS011;10384;51.940;8.432;2023-02-16T13:19:14;29.23;;;11.00;;
20449;SDS011;10384;51.940;8.432;2023-02-16T13:21:53;25.37;;;10.63;;
20449;SDS011;10384;51.940;8.432;2023-02-16T13:24:39;27.07;;;11.13;;
20449;SDS011;10384;51.940;8.432;2023-02-16T13:34:58;26.33;;;10.90;;
20449;SDS011;10384;51.940;8.432;2023-02-16T13:38:13;26.37;;;11.13;;
20449;SDS011;10384;51.940;8.432;2023-02-16T13:45:25;29.03;;;11.60;;
20449;SDS011;10384;51.940;8.432;2023-02-16T13:47:52;25.20;;;11.47;;
20449;SDS011;10384;51.940;8.432;2023-02-16T13:52:45;27.37;;;11.87;;
20449;SDS011;10384;51.940;8.432;2023-02-16T13:55:22;25.63;;;10.53;;
20449;SDS011;10384;51.940;8.432;2023-02-16T13:57:57;27.37;;;11.83;;
20449;SDS011;10384;51.940;8.432;2023-02-16T14:03:04;32.10;;;12.07;;
20449;SDS011;10384;51.940;8.432;2023-02-16T14:05:35;26.13;;;11.80;;
20449;SDS011;10384;51.940;8.432;2023-02-16T14:08:15;26.87;;;11.60;;
20449;SDS011;10384;51.940;8.432;2023-02-16T14:13:19;30.47;;;11.90;;
20449;SDS011;10384;51.940;8.432;2023-02-16T14:15:49;30.03;;;12.20;;
20449;SDS011;10384;51.940;8.432;2023-02-16T14:18:19;30.63;;;13.07;;
20449;SDS011;10384;51.940;8.432;2023-02-16T14:20:46;27.97;;;12.37;;
20449;SDS011;10384;51.940;8.432;2023-02-16T14:23:24;30.57;;;13.50;;
20449;SDS011;10384;51.940;8.432;2023-02-16T14:25:56;35.83;;;13.93;;
20449;SDS011;10384;51.940;8.432;2023-02-16T14:30:57;32.93;;;14.03;;
20449;SDS011;10384;51.940;8.432;2023-02-16T14:40:58;35.50;;;13.73;;
20449;SDS011;10384;51.940;8.432;2023-02-16T14:45:54;30.60;;;12.77;;
20449;SDS011;10384;51.940;8.432;2023-02-16T14:50:53;40.23;;;13.80;;
20449;SDS011;10384;51.940;8.432;2023-02-16T14:58:53;29.87;;;12.50;;
20449;SDS011;10384;51.940;8.432;2023-02-16T15:01:21;33.67;;;13.50;;
20449;SDS011;10384;51.940;8.432;2023-02-16T15:03:50;34.23;;;14.93;;
20449;SDS011;10384;51.940;8.432;2023-02-16T15:06:18;28.37;;;12.60;;
20449;SDS011;10384;51.940;8.432;2023-02-16T15:08:45;31.00;;;13.10;;
20449;SDS011;10384;51.940;8.432;2023-02-16T15:13:40;27.50;;;12.63;;
20449;SDS011;10384;51.940;8.432;2023-02-16T15:16:06;30.30;;;12.83;;
20449;SDS011;10384;51.940;8.432;2023-02-16T15:18:44;32.33;;;13.10;;
20449;SDS011;10384;51.940;8.432;2023-02-16T15:21:18;33.23;;;13.23;;
20449;SDS011;10384;51.940;8.432;2023-02-16T15:23:51;32.27;;;13.47;;
20449;SDS011;10384;51.940;8.432;2023-02-16T15:26:19;31.67;;;12.63;;
20449;SDS011;10384;51.940;8.432;2023-02-16T15:28:50;34.13;;;13.80;;
20449;SDS011;10384;51.940;8.432;2023-02-16T15:31:17;32.23;;;13.90;;
20449;SDS011;10384;51.940;8.432;2023-02-16T15:33:59;32.87;;;13.73;;
20449;SDS011;10384;51.940;8.432;2023-02-16T15:36:30;30.87;;;13.63;;
20449;SDS011;10384;51.940;8.432;2023-02-16T15:39:06;31.87;;;14.20;;
20449;SDS011;10384;51.940;8.432;2023-02-16T15:41:39;35.57;;;15.03;;
20449;SDS011;10384;51.940;8.432;2023-02-16T15:44:12;32.10;;;14.33;;
20449;SDS011;10384;51.940;8.432;2023-02-16T15:46:40;31.93;;;14.23;;
20449;SDS011;10384;51.940;8.432;2023-02-16T15:49:11;33.80;;;13.27;;
20449;SDS011;10384;51.940;8.432;2023-02-16T15:51:37;34.57;;;14.23;;
20449;SDS011;10384;51.940;8.432;2023-02-16T15:54:26;33.57;;;14.30;;
20449;SDS011;10384;51.940;8.432;2023-02-16T15:56:52;35.90;;;14.33;;
20449;SDS011;10384;51.940;8.432;2023-02-16T16:01:45;38.73;;;13.70;;
20449;SDS011;10384;51.940;8.432;2023-02-16T16:06:43;30.93;;;13.33;;
20449;SDS011;10384;51.940;8.432;2023-02-16T16:12:08;38.20;;;14.70;;
20449;SDS011;10384;51.940;8.432;2023-02-16T16:14:37;33.97;;;15.17;;
20449;SDS011;10384;51.940;8.432;2023-02-16T16:17:04;35.97;;;14.73;;
20449;SDS011;10384;51.940;8.432;2023-02-16T16:19:34;36.33;;;14.23;;
20449;SDS011;10384;51.940;8.432;2023-02-16T16:22:00;33.53;;;14.30;;
20449;SDS011;10384;51.940;8.432;2023-02-16T16:24:37;33.60;;;14.23;;
20449;SDS011;10384;51.940;8.432;2023-02-16T16:27:08;34.67;;;14.00;;
20449;SDS011;10384;51.940;8.432;2023-02-16T16:32:05;36.20;;;14.93;;
20449;SDS011;10384;51.940;8.432;2023-02-16T16:34:36;35.53;;;14.43;;
20449;SDS011;10384;51.940;8.432;2023-02-16T16:37:03;34.63;;;14.57;;
20449;SDS011;10384;51.940;8.432;2023-02-16T16:39:37;35.10;;;14.90;;
20449;SDS011;10384;51.940;8.432;2023-02-16T16:42:06;36.77;;;15.40;;
20449;SDS011;10384;51.940;8.432;2023-02-16T16:44:34;36.07;;;15.03;;
20449;SDS011;10384;51.940;8.432;2023-02-16T16:47:10;33.23;;;14.93;;
20449;SDS011;10384;51.940;8.432;2023-02-16T16:49:37;37.70;;;15.60;;